sensor_id;sensor_type;location;lat;lon;timestamp;P1;durP1;ratioP1;P2;durP2;ratioP2
50355;SDS011;36264;51.296;-0.602;2023-01-10T00:02:15;5.95;;;2.10;;
50355;SDS011;36264;51.296;-0.602;2023-01-10T00:04:41;6.15;;;1.90;;
50355;SDS011;36264;51.296;-0.602;2023-01-10T00:07:06;11.85;;;1.70;;
50355;SDS011;36264;51.296;-0.602;2023-01-10T00:09:32;6.78;;;1.70;;
50355;SDS011;36264;51.296;-0.602;2023-01-10T00:11:57;7.75;;;2.05;;
50355;SDS011;36264;51.296;-0.602;2023-01-10T00:14:41;8.43;;;1.70;;
50355;SDS011;36264;51.296;-0.602;2023-01-10T00:17:06;7.10;;;1.52;;
50355;SDS011;36264;51.296;-0.602;2023-01-10T00:19:32;7.25;;;1.80;;
50355;SDS011;36264;51.296;-0.602;2023-01-10T00:21:57;7.60;;;1.63;;
50355;SDS011;36264;51.296;-0.602;2023-01-10T00:24:27;7.68;;;1.75;;
50355;SDS011;36264;51.296;-0.602;2023-01-10T00:26:53;7.40;;;1.73;;
50355;SDS011;36264;51.296;-0.602;2023-01-10T00:29:19;6.32;;;1.42;;
50355;SDS011;36264;51.296;-0.602;2023-01-10T00:31:46;8.82;;;2.10;;
50355;SDS011;36264;51.296;-0.602;2023-01-10T00:34:12;8.20;;;1.85;;
50355;SDS011;36264;51.296;-0.602;2023-01-10T00:36:37;11.18;;;2.00;;
50355;SDS011;36264;51.296;-0.602;2023-01-10T00:39:03;9.57;;;1.70;;
50355;SDS011;36264;51.296;-0.602;2023-01-10T00:41:28;6.55;;;1.77;;
50355;SDS011;36264;51.296;-0.602;2023-01-10T00:44:12;10.38;;;2.00;;
50355;SDS011;36264;51.296;-0.602;2023-01-10T00:46:38;5.72;;;1.50;;
50355;SDS011;36264;51.296;-0.602;2023-01-10T00:49:03;11.88;;;2.10;;
50355;SDS011;36264;51.296;-0.602;2023-01-10T00:51:36;8.70;;;2.00;;
50355;SDS011;36264;51.296;-0.602;2023-01-10T00:54:01;10.65;;;1.65;;
50355;SDS011;36264;51.296;-0.602;2023-01-10T00:56:27;7.63;;;1.80;;
50355;SDS011;36264;51.296;-0.602;2023-01-10T00:58:53;5.85;;;1.70;;
50355;SDS011;36264;51.296;-0.602;2023-01-10T01:01:18;7.85;;;1.52;;
50355;SDS011;36264;51.296;-0.602;2023-01-10T01:03:43;11.20;;;2.15;;
50355;SDS011;36264;51.296;-0.602;2023-01-10T01:06:09;6.18;;;1.88;;
50355;SDS011;36264;51.296;-0.602;2023-01-10T01:08:34;13.48;;;2.35;;
50355;SDS011;36264;51.296;-0.602;2023-01-10T01:10:59;11.30;;;2.97;;
50355;SDS011;36264;51.296;-0.602;2023-01-10T01:13:25;13.57;;;2.20;;
50355;SDS011;36264;51.296;-0.602;2023-01-10T01:15:51;10.45;;;2.00;;
50355;SDS011;36264;51.296;-0.602;2023-01-10T01:18:17;6.80;;;2.17;;
50355;SDS011;36264;51.296;-0.602;2023-01-10T01:20:45;12.80;;;2.33;;
50355;SDS011;36264;51.296;-0.602;2023-01-10T01:23:11;9.70;;;1.98;;
50355;SDS011;36264;51.296;-0.602;2023-01-10T01:25:37;8.27;;;2.10;;
50355;SDS011;36264;51.296;-0.602;2023-01-10T01:28:03;7.22;;;1.83;;
50355;SDS011;36264;51.296;-0.602;2023-01-10T01:30:28;7.82;;;2.05;;
50355;SDS011;36264;51.296;-0.602;2023-01-10T01:32:54;10.70;;;2.00;;
50355;SDS011;36264;51.296;-0.602;2023-01-10T01:35:19;8.43;;;2.15;;
50355;SDS011;36264;51.296;-0.602;2023-01-10T01:37:45;9.23;;;1.90;;
50355;SDS011;36264;51.296;-0.602;2023-01-10T01:40:15;7.90;;;2.50;;
50355;SDS011;36264;51.296;-0.602;2023-01-10T01:42:42;5.80;;;1.60;;
50355;SDS011;36264;51.296;-0.602;2023-01-10T01:47:37;9.05;;;1.80;;
50355;SDS011;36264;51.296;-0.602;2023-01-10T01:50:31;8.77;;;1.90;;
50355;SDS011;36264;51.296;-0.602;2023-01-10T01:52:55;6.28;;;1.70;;
50355;SDS011;36264;51.296;-0.602;2023-01-10T01:55:23;10.13;;;1.63;;
50355;SDS011;36264;51.296;-0.602;2023-01-10T01:57:51;10.68;;;2.10;;
50355;SDS011;36264;51.296;-0.602;2023-01-10T02:00:19;10.38;;;2.35;;
50355;SDS011;36264;51.296;-0.602;2023-01-10T02:02:46;16.45;;;2.97;;
50355;SDS011;36264;51.296;-0.602;2023-01-10T02:05:14;14.15;;;2.60;;
50355;SDS011;36264;51.296;-0.602;2023-01-10T02:07:43;10.65;;;2.75;;
50355;SDS011;36264;51.296;-0.602;2023-01-10T02:10:34;11.55;;;2.10;;
50355;SDS011;36264;51.296;-0.602;2023-01-10T02:13:17;9.02;;;1.85;;
50355;SDS011;36264;51.296;-0.602;2023-01-10T02:15:44;16.13;;;1.98;;
50355;SDS011;36264;51.296;-0.602;2023-01-10T02:18:09;7.60;;;1.70;;
50355;SDS011;36264;51.296;-0.602;2023-01-10T02:20:45;11.32;;;1.88;;
50355;SDS011;36264;51.296;-0.602;2023-01-10T02:26:18;6.47;;;1.52;;
50355;SDS011;36264;51.296;-0.602;2023-01-10T02:41:50;6.68;;;1.58;;
50355;SDS011;36264;51.296;-0.602;2023-01-10T02:44:30;6.28;;;1.40;;
50355;SDS011;36264;51.296;-0.602;2023-01-10T02:47:05;8.48;;;1.80;;
50355;SDS011;36264;51.296;-0.602;2023-01-10T02:49:45;9.98;;;2.00;;
50355;SDS011;36264;51.296;-0.602;2023-01-10T02:52:22;9.10;;;1.90;;
50355;SDS011;36264;51.296;-0.602;2023-01-10T02:54:52;5.80;;;1.60;;
50355;SDS011;36264;51.296;-0.602;2023-01-10T03:02:39;7.78;;;1.48;;
50355;SDS011;36264;51.296;-0.602;2023-01-10T03:08:23;6.40;;;1.55;;
50355;SDS011;36264;51.296;-0.602;2023-01-10T03:11:03;8.60;;;2.13;;
50355;SDS011;36264;51.296;-0.602;2023-01-10T03:16:23;7.60;;;1.42;;
50355;SDS011;36264;51.296;-0.602;2023-01-10T03:18:54;9.80;;;2.08;;
50355;SDS011;36264;51.296;-0.602;2023-01-10T03:21:26;10.15;;;2.10;;
50355;SDS011;36264;51.296;-0.602;2023-01-10T03:23:54;8.95;;;1.50;;
50355;SDS011;36264;51.296;-0.602;2023-01-10T03:26:29;8.32;;;2.10;;
50355;SDS011;36264;51.296;-0.602;2023-01-10T03:29:05;7.85;;;2.20;;
50355;SDS011;36264;51.296;-0.602;2023-01-10T03:31:36;7.25;;;1.60;;
50355;SDS011;36264;51.296;-0.602;2023-01-10T03:34:11;8.05;;;1.80;;
50355;SDS011;36264;51.296;-0.602;2023-01-10T03:36:41;5.55;;;1.60;;
50355;SDS011;36264;51.296;-0.602;2023-01-10T03:39:23;9.65;;;1.60;;
50355;SDS011;36264;51.296;-0.602;2023-01-10T03:44:34;11.55;;;1.88;;
50355;SDS011;36264;51.296;-0.602;2023-01-10T03:49:52;4.37;;;1.20;;
50355;SDS011;36264;51.296;-0.602;2023-01-10T03:52:20;4.22;;;1.30;;
50355;SDS011;36264;51.296;-0.602;2023-01-10T03:54:46;4.03;;;1.20;;
50355;SDS011;36264;51.296;-0.602;2023-01-10T03:57:19;5.03;;;1.55;;
50355;SDS011;36264;51.296;-0.602;2023-01-10T03:59:46;3.25;;;1.25;;
50355;SDS011;36264;51.296;-0.602;2023-01-10T04:02:13;4.38;;;1.27;;
50355;SDS011;36264;51.296;-0.602;2023-01-10T04:04:38;7.95;;;1.60;;
50355;SDS011;36264;51.296;-0.602;2023-01-10T04:07:04;4.82;;;1.25;;
50355;SDS011;36264;51.296;-0.602;2023-01-10T04:09:29;4.90;;;1.70;;
50355;SDS011;36264;51.296;-0.602;2023-01-10T04:11:55;6.35;;;1.30;;
50355;SDS011;36264;51.296;-0.602;2023-01-10T04:14:20;3.45;;;1.63;;
50355;SDS011;36264;51.296;-0.602;2023-01-10T04:16:45;3.58;;;1.33;;
50355;SDS011;36264;51.296;-0.602;2023-01-10T04:19:11;5.30;;;1.55;;
50355;SDS011;36264;51.296;-0.602;2023-01-10T04:21:36;5.20;;;1.40;;
50355;SDS011;36264;51.296;-0.602;2023-01-10T04:24:01;5.03;;;1.40;;
50355;SDS011;36264;51.296;-0.602;2023-01-10T04:26:27;7.75;;;1.48;;
50355;SDS011;36264;51.296;-0.602;2023-01-10T04:28:52;5.88;;;1.50;;
50355;SDS011;36264;51.296;-0.602;2023-01-10T04:31:18;6.97;;;1.40;;
50355;SDS011;36264;51.296;-0.602;2023-01-10T04:33:43;4.90;;;1.50;;
50355;SDS011;36264;51.296;-0.602;2023-01-10T04:36:09;5.43;;;1.40;;
50355;SDS011;36264;51.296;-0.602;2023-01-10T04:38:34;5.35;;;1.30;;
50355;SDS011;36264;51.296;-0.602;2023-01-10T04:40:59;5.97;;;1.40;;
50355;SDS011;36264;51.296;-0.602;2023-01-10T04:43:25;6.10;;;1.50;;
50355;SDS011;36264;51.296;-0.602;2023-01-10T04:45:50;8.63;;;1.60;;
50355;SDS011;36264;51.296;-0.602;2023-01-10T04:48:16;4.55;;;1.33;;
50355;SDS011;36264;51.296;-0.602;2023-01-10T04:50:41;6.43;;;1.50;;
50355;SDS011;36264;51.296;-0.602;2023-01-10T04:53:06;5.18;;;1.48;;
50355;SDS011;36264;51.296;-0.602;2023-01-10T04:55:32;4.65;;;1.58;;
50355;SDS011;36264;51.296;-0.602;2023-01-10T04:57:58;8.43;;;1.58;;
50355;SDS011;36264;51.296;-0.602;2023-01-10T05:00:25;10.20;;;1.75;;
50355;SDS011;36264;51.296;-0.602;2023-01-10T05:02:54;8.93;;;1.70;;
50355;SDS011;36264;51.296;-0.602;2023-01-10T05:05:20;9.93;;;1.80;;
50355;SDS011;36264;51.296;-0.602;2023-01-10T05:07:45;8.13;;;1.70;;
50355;SDS011;36264;51.296;-0.602;2023-01-10T05:10:11;4.47;;;1.60;;
50355;SDS011;36264;51.296;-0.602;2023-01-10T05:12:37;6.50;;;1.40;;
50355;SDS011;36264;51.296;-0.602;2023-01-10T05:15:03;7.10;;;1.58;;
50355;SDS011;36264;51.296;-0.602;2023-01-10T05:17:29;7.20;;;1.40;;
50355;SDS011;36264;51.296;-0.602;2023-01-10T05:19:54;8.20;;;1.83;;
50355;SDS011;36264;51.296;-0.602;2023-01-10T05:22:19;8.52;;;1.70;;
50355;SDS011;36264;51.296;-0.602;2023-01-10T05:24:45;5.32;;;1.67;;
50355;SDS011;36264;51.296;-0.602;2023-01-10T05:27:10;8.15;;;1.48;;
50355;SDS011;36264;51.296;-0.602;2023-01-10T05:29:35;10.75;;;1.70;;
50355;SDS011;36264;51.296;-0.602;2023-01-10T05:32:01;7.60;;;1.80;;
50355;SDS011;36264;51.296;-0.602;2023-01-10T05:34:26;7.78;;;1.65;;
50355;SDS011;36264;51.296;-0.602;2023-01-10T05:36:52;8.75;;;2.03;;
50355;SDS011;36264;51.296;-0.602;2023-01-10T05:39:17;4.55;;;1.50;;
50355;SDS011;36264;51.296;-0.602;2023-01-10T05:41:43;3.45;;;1.58;;
50355;SDS011;36264;51.296;-0.602;2023-01-10T05:44:08;3.72;;;1.20;;
50355;SDS011;36264;51.296;-0.602;2023-01-10T05:46:34;7.75;;;1.33;;
50355;SDS011;36264;51.296;-0.602;2023-01-10T05:48:59;8.18;;;1.40;;
50355;SDS011;36264;51.296;-0.602;2023-01-10T05:51:24;8.13;;;1.58;;
50355;SDS011;36264;51.296;-0.602;2023-01-10T05:53:50;5.72;;;1.58;;
50355;SDS011;36264;51.296;-0.602;2023-01-10T05:56:15;9.75;;;1.70;;
50355;SDS011;36264;51.296;-0.602;2023-01-10T05:58:41;7.70;;;1.50;;
50355;SDS011;36264;51.296;-0.602;2023-01-10T06:01:06;5.80;;;1.80;;
50355;SDS011;36264;51.296;-0.602;2023-01-10T06:03:32;5.93;;;1.33;;
50355;SDS011;36264;51.296;-0.602;2023-01-10T06:05:57;8.57;;;1.60;;
50355;SDS011;36264;51.296;-0.602;2023-01-10T06:08:22;7.03;;;1.75;;
50355;SDS011;36264;51.296;-0.602;2023-01-10T06:10:49;5.88;;;1.50;;
50355;SDS011;36264;51.296;-0.602;2023-01-10T06:13:15;15.70;;;2.10;;
50355;SDS011;36264;51.296;-0.602;2023-01-10T06:15:40;7.78;;;1.70;;
50355;SDS011;36264;51.296;-0.602;2023-01-10T06:18:07;6.70;;;1.63;;
50355;SDS011;36264;51.296;-0.602;2023-01-10T06:20:33;9.35;;;2.00;;
50355;SDS011;36264;51.296;-0.602;2023-01-10T06:22:58;9.32;;;1.67;;
50355;SDS011;36264;51.296;-0.602;2023-01-10T06:25:28;14.55;;;2.03;;
50355;SDS011;36264;51.296;-0.602;2023-01-10T06:27:54;5.03;;;1.60;;
50355;SDS011;36264;51.296;-0.602;2023-01-10T06:30:19;8.43;;;1.80;;
50355;SDS011;36264;51.296;-0.602;2023-01-10T06:32:45;7.05;;;1.80;;
50355;SDS011;36264;51.296;-0.602;2023-01-10T06:35:10;5.53;;;1.60;;
50355;SDS011;36264;51.296;-0.602;2023-01-10T06:37:35;7.47;;;1.60;;
50355;SDS011;36264;51.296;-0.602;2023-01-10T06:40:01;12.77;;;1.90;;
50355;SDS011;36264;51.296;-0.602;2023-01-10T06:42:27;7.20;;;1.73;;
50355;SDS011;36264;51.296;-0.602;2023-01-10T06:44:53;7.40;;;1.70;;
50355;SDS011;36264;51.296;-0.602;2023-01-10T06:47:18;5.65;;;1.55;;
50355;SDS011;36264;51.296;-0.602;2023-01-10T06:49:43;10.60;;;2.10;;
50355;SDS011;36264;51.296;-0.602;2023-01-10T06:52:09;4.22;;;1.40;;
50355;SDS011;36264;51.296;-0.602;2023-01-10T06:54:34;10.68;;;2.10;;
50355;SDS011;36264;51.296;-0.602;2023-01-10T06:57:00;6.95;;;1.45;;
50355;SDS011;36264;51.296;-0.602;2023-01-10T06:59:25;12.52;;;2.22;;
50355;SDS011;36264;51.296;-0.602;2023-01-10T07:01:50;10.85;;;2.03;;
50355;SDS011;36264;51.296;-0.602;2023-01-10T07:04:16;4.38;;;1.58;;
50355;SDS011;36264;51.296;-0.602;2023-01-10T07:06:41;9.07;;;2.25;;
50355;SDS011;36264;51.296;-0.602;2023-01-10T07:09:07;6.25;;;1.80;;
50355;SDS011;36264;51.296;-0.602;2023-01-10T07:11:33;6.93;;;1.75;;
50355;SDS011;36264;51.296;-0.602;2023-01-10T07:13:59;10.82;;;1.90;;
50355;SDS011;36264;51.296;-0.602;2023-01-10T07:16:25;7.68;;;1.80;;
50355;SDS011;36264;51.296;-0.602;2023-01-10T07:18:51;7.32;;;1.77;;
50355;SDS011;36264;51.296;-0.602;2023-01-10T07:21:16;4.85;;;1.70;;
50355;SDS011;36264;51.296;-0.602;2023-01-10T07:23:46;8.07;;;1.90;;
50355;SDS011;36264;51.296;-0.602;2023-01-10T07:26:13;7.45;;;1.98;;
50355;SDS011;36264;51.296;-0.602;2023-01-10T07:28:41;11.65;;;1.92;;
50355;SDS011;36264;51.296;-0.602;2023-01-10T07:31:08;8.60;;;2.05;;
50355;SDS011;36264;51.296;-0.602;2023-01-10T07:33:34;10.63;;;2.30;;
50355;SDS011;36264;51.296;-0.602;2023-01-10T07:36:00;8.50;;;2.10;;
50355;SDS011;36264;51.296;-0.602;2023-01-10T07:38:26;9.30;;;1.90;;
50355;SDS011;36264;51.296;-0.602;2023-01-10T07:40:52;5.13;;;1.50;;
50355;SDS011;36264;51.296;-0.602;2023-01-10T07:43:17;7.70;;;1.65;;
50355;SDS011;36264;51.296;-0.602;2023-01-10T07:45:42;5.80;;;1.70;;
50355;SDS011;36264;51.296;-0.602;2023-01-10T07:48:08;5.82;;;1.63;;
50355;SDS011;36264;51.296;-0.602;2023-01-10T07:50:34;7.38;;;1.67;;
50355;SDS011;36264;51.296;-0.602;2023-01-10T07:53:01;7.88;;;1.65;;
50355;SDS011;36264;51.296;-0.602;2023-01-10T07:55:29;8.20;;;1.98;;
50355;SDS011;36264;51.296;-0.602;2023-01-10T07:57:55;7.60;;;1.60;;
50355;SDS011;36264;51.296;-0.602;2023-01-10T08:00:21;6.07;;;1.50;;
50355;SDS011;36264;51.296;-0.602;2023-01-10T08:02:46;6.45;;;1.25;;
50355;SDS011;36264;51.296;-0.602;2023-01-10T08:05:12;6.82;;;1.70;;
50355;SDS011;36264;51.296;-0.602;2023-01-10T08:07:38;7.70;;;1.98;;
50355;SDS011;36264;51.296;-0.602;2023-01-10T08:10:04;8.75;;;1.60;;
50355;SDS011;36264;51.296;-0.602;2023-01-10T08:12:30;6.55;;;1.67;;
50355;SDS011;36264;51.296;-0.602;2023-01-10T08:14:56;7.78;;;1.70;;
50355;SDS011;36264;51.296;-0.602;2023-01-10T08:17:22;10.45;;;1.70;;
50355;SDS011;36264;51.296;-0.602;2023-01-10T08:19:47;5.65;;;1.70;;
50355;SDS011;36264;51.296;-0.602;2023-01-10T08:22:13;4.38;;;1.55;;
50355;SDS011;36264;51.296;-0.602;2023-01-10T08:24:38;7.97;;;2.03;;
50355;SDS011;36264;51.296;-0.602;2023-01-10T08:27:03;4.10;;;1.48;;
50355;SDS011;36264;51.296;-0.602;2023-01-10T08:29:29;4.22;;;1.40;;
50355;SDS011;36264;51.296;-0.602;2023-01-10T08:31:55;6.97;;;1.35;;
50355;SDS011;36264;51.296;-0.602;2023-01-10T08:34:20;4.93;;;1.40;;
50355;SDS011;36264;51.296;-0.602;2023-01-10T08:36:52;6.88;;;1.60;;
50355;SDS011;36264;51.296;-0.602;2023-01-10T08:39:19;4.97;;;1.35;;
50355;SDS011;36264;51.296;-0.602;2023-01-10T08:41:46;4.25;;;1.30;;
50355;SDS011;36264;51.296;-0.602;2023-01-10T08:44:12;6.15;;;1.17;;
50355;SDS011;36264;51.296;-0.602;2023-01-10T08:46:39;3.45;;;1.15;;
50355;SDS011;36264;51.296;-0.602;2023-01-10T08:49:05;3.75;;;1.17;;
50355;SDS011;36264;51.296;-0.602;2023-01-10T08:51:31;3.95;;;1.10;;
50355;SDS011;36264;51.296;-0.602;2023-01-10T08:53:56;3.10;;;1.08;;
50355;SDS011;36264;51.296;-0.602;2023-01-10T08:56:21;5.13;;;0.93;;
50355;SDS011;36264;51.296;-0.602;2023-01-10T08:58:47;2.78;;;1.08;;
50355;SDS011;36264;51.296;-0.602;2023-01-10T09:01:12;3.30;;;1.30;;
50355;SDS011;36264;51.296;-0.602;2023-01-10T09:03:38;2.22;;;0.82;;
50355;SDS011;36264;51.296;-0.602;2023-01-10T09:06:04;1.02;;;0.60;;
50355;SDS011;36264;51.296;-0.602;2023-01-10T09:08:30;2.13;;;0.82;;
50355;SDS011;36264;51.296;-0.602;2023-01-10T09:10:57;1.55;;;0.88;;
50355;SDS011;36264;51.296;-0.602;2023-01-10T09:13:27;3.42;;;0.70;;
50355;SDS011;36264;51.296;-0.602;2023-01-10T09:15:53;2.35;;;0.80;;
50355;SDS011;36264;51.296;-0.602;2023-01-10T09:18:19;1.15;;;0.60;;
50355;SDS011;36264;51.296;-0.602;2023-01-10T09:20:45;2.63;;;0.82;;
50355;SDS011;36264;51.296;-0.602;2023-01-10T09:23:11;1.45;;;0.70;;
50355;SDS011;36264;51.296;-0.602;2023-01-10T09:25:42;0.85;;;0.50;;
50355;SDS011;36264;51.296;-0.602;2023-01-10T09:28:09;0.57;;;0.57;;
50355;SDS011;36264;51.296;-0.602;2023-01-10T09:30:35;0.95;;;0.70;;
50355;SDS011;36264;51.296;-0.602;2023-01-10T09:33:00;1.35;;;0.52;;
50355;SDS011;36264;51.296;-0.602;2023-01-10T09:35:26;0.40;;;0.40;;
50355;SDS011;36264;51.296;-0.602;2023-01-10T09:37:54;1.15;;;0.40;;
50355;SDS011;36264;51.296;-0.602;2023-01-10T09:40:32;0.40;;;0.40;;
50355;SDS011;36264;51.296;-0.602;2023-01-10T09:45:39;1.73;;;0.40;;
50355;SDS011;36264;51.296;-0.602;2023-01-10T09:48:16;0.60;;;0.38;;
50355;SDS011;36264;51.296;-0.602;2023-01-10T09:53:33;1.88;;;0.70;;
50355;SDS011;36264;51.296;-0.602;2023-01-10T09:56:03;0.47;;;0.40;;
50355;SDS011;36264;51.296;-0.602;2023-01-10T09:58:33;2.22;;;0.40;;
50355;SDS011;36264;51.296;-0.602;2023-01-10T10:01:08;1.63;;;0.52;;
50355;SDS011;36264;51.296;-0.602;2023-01-10T10:06:29;0.60;;;0.40;;
50355;SDS011;36264;51.296;-0.602;2023-01-10T10:08:54;1.13;;;0.57;;
50355;SDS011;36264;51.296;-0.602;2023-01-10T10:11:33;1.23;;;0.70;;
50355;SDS011;36264;51.296;-0.602;2023-01-10T10:17:17;0.35;;;0.35;;
50355;SDS011;36264;51.296;-0.602;2023-01-10T10:20:38;0.75;;;0.50;;
50355;SDS011;36264;51.296;-0.602;2023-01-10T10:28:45;1.27;;;0.70;;
50355;SDS011;36264;51.296;-0.602;2023-01-10T10:34:29;0.85;;;0.50;;
50355;SDS011;36264;51.296;-0.602;2023-01-10T10:42:13;2.28;;;0.85;;
50355;SDS011;36264;51.296;-0.602;2023-01-10T10:47:26;1.48;;;0.70;;
50355;SDS011;36264;51.296;-0.602;2023-01-10T10:52:39;2.30;;;0.60;;
50355;SDS011;36264;51.296;-0.602;2023-01-10T10:55:11;1.02;;;0.50;;
50355;SDS011;36264;51.296;-0.602;2023-01-10T10:57:41;0.77;;;0.63;;
50355;SDS011;36264;51.296;-0.602;2023-01-10T11:00:14;0.95;;;0.43;;
50355;SDS011;36264;51.296;-0.602;2023-01-10T11:02:46;0.90;;;0.50;;
50355;SDS011;36264;51.296;-0.602;2023-01-10T11:05:17;1.25;;;0.70;;
50355;SDS011;36264;51.296;-0.602;2023-01-10T11:07:45;0.73;;;0.40;;
50355;SDS011;36264;51.296;-0.602;2023-01-10T11:10:14;0.95;;;0.50;;
50355;SDS011;36264;51.296;-0.602;2023-01-10T11:12:59;0.65;;;0.43;;
50355;SDS011;36264;51.296;-0.602;2023-01-10T11:15:48;0.63;;;0.50;;
50355;SDS011;36264;51.296;-0.602;2023-01-10T11:18:14;1.13;;;0.50;;
50355;SDS011;36264;51.296;-0.602;2023-01-10T11:26:02;0.43;;;0.40;;
50355;SDS011;36264;51.296;-0.602;2023-01-10T11:28:33;0.50;;;0.50;;
50355;SDS011;36264;51.296;-0.602;2023-01-10T11:31:00;1.17;;;0.70;;
50355;SDS011;36264;51.296;-0.602;2023-01-10T11:33:29;0.85;;;0.50;;
50355;SDS011;36264;51.296;-0.602;2023-01-10T11:38:32;0.93;;;0.43;;
50355;SDS011;36264;51.296;-0.602;2023-01-10T11:41:02;0.95;;;0.70;;
50355;SDS011;36264;51.296;-0.602;2023-01-10T11:43:47;0.98;;;0.60;;
50355;SDS011;36264;51.296;-0.602;2023-01-10T11:46:16;0.70;;;0.70;;
50355;SDS011;36264;51.296;-0.602;2023-01-10T11:51:36;1.77;;;0.70;;
50355;SDS011;36264;51.296;-0.602;2023-01-10T11:54:16;1.15;;;0.60;;
50355;SDS011;36264;51.296;-0.602;2023-01-10T11:59:27;2.30;;;0.70;;
50355;SDS011;36264;51.296;-0.602;2023-01-10T12:01:55;0.88;;;0.55;;
50355;SDS011;36264;51.296;-0.602;2023-01-10T12:04:33;2.08;;;0.65;;
50355;SDS011;36264;51.296;-0.602;2023-01-10T12:07:07;1.38;;;0.70;;
50355;SDS011;36264;51.296;-0.602;2023-01-10T12:12:14;2.10;;;0.70;;
50355;SDS011;36264;51.296;-0.602;2023-01-10T12:14:50;1.77;;;0.80;;
50355;SDS011;36264;51.296;-0.602;2023-01-10T12:17:24;1.25;;;0.55;;
50355;SDS011;36264;51.296;-0.602;2023-01-10T12:19:51;2.90;;;1.33;;
50355;SDS011;36264;51.296;-0.602;2023-01-10T12:22:24;3.30;;;1.52;;
50355;SDS011;36264;51.296;-0.602;2023-01-10T12:24:54;4.70;;;1.90;;
50355;SDS011;36264;51.296;-0.602;2023-01-10T12:27:22;4.45;;;2.42;;
50355;SDS011;36264;51.296;-0.602;2023-01-10T12:29:57;7.55;;;2.67;;
50355;SDS011;36264;51.296;-0.602;2023-01-10T12:32:38;5.97;;;2.22;;
50355;SDS011;36264;51.296;-0.602;2023-01-10T12:35:10;8.20;;;2.40;;
50355;SDS011;36264;51.296;-0.602;2023-01-10T12:37:45;8.60;;;3.00;;
50355;SDS011;36264;51.296;-0.602;2023-01-10T12:40:36;8.50;;;2.35;;
50355;SDS011;36264;51.296;-0.602;2023-01-10T12:43:19;11.10;;;2.40;;
50355;SDS011;36264;51.296;-0.602;2023-01-10T12:46:09;10.63;;;2.35;;
50355;SDS011;36264;51.296;-0.602;2023-01-10T12:49:01;15.60;;;3.50;;
50355;SDS011;36264;51.296;-0.602;2023-01-10T12:51:32;13.35;;;3.17;;
50355;SDS011;36264;51.296;-0.602;2023-01-10T12:54:03;15.98;;;3.83;;
50355;SDS011;36264;51.296;-0.602;2023-01-10T12:56:36;12.75;;;2.95;;
50355;SDS011;36264;51.296;-0.602;2023-01-10T12:59:04;18.08;;;3.50;;
50355;SDS011;36264;51.296;-0.602;2023-01-10T13:01:40;19.70;;;4.20;;
50355;SDS011;36264;51.296;-0.602;2023-01-10T13:04:09;19.15;;;3.40;;
50355;SDS011;36264;51.296;-0.602;2023-01-10T13:06:39;19.42;;;3.72;;
50355;SDS011;36264;51.296;-0.602;2023-01-10T13:09:08;28.88;;;4.38;;
50355;SDS011;36264;51.296;-0.602;2023-01-10T13:11:41;24.48;;;4.43;;
50355;SDS011;36264;51.296;-0.602;2023-01-10T13:14:30;19.42;;;3.88;;
50355;SDS011;36264;51.296;-0.602;2023-01-10T13:17:24;22.30;;;3.90;;
50355;SDS011;36264;51.296;-0.602;2023-01-10T13:22:41;19.45;;;5.18;;
50355;SDS011;36264;51.296;-0.602;2023-01-10T13:25:19;24.25;;;5.43;;
50355;SDS011;36264;51.296;-0.602;2023-01-10T13:27:53;19.83;;;4.07;;
50355;SDS011;36264;51.296;-0.602;2023-01-10T13:30:30;21.38;;;4.85;;
50355;SDS011;36264;51.296;-0.602;2023-01-10T13:33:01;25.00;;;5.60;;
50355;SDS011;36264;51.296;-0.602;2023-01-10T13:35:36;20.20;;;4.20;;
50355;SDS011;36264;51.296;-0.602;2023-01-10T13:38:03;19.83;;;4.13;;
50355;SDS011;36264;51.296;-0.602;2023-01-10T13:40:29;20.23;;;5.30;;
50355;SDS011;36264;51.296;-0.602;2023-01-10T13:46:31;24.50;;;5.03;;
50355;SDS011;36264;51.296;-0.602;2023-01-10T13:51:18;24.88;;;4.57;;
50355;SDS011;36264;51.296;-0.602;2023-01-10T13:56:28;21.15;;;4.47;;
50355;SDS011;36264;51.296;-0.602;2023-01-10T13:58:57;29.45;;;5.40;;
50355;SDS011;36264;51.296;-0.602;2023-01-10T14:01:41;25.20;;;5.43;;
50355;SDS011;36264;51.296;-0.602;2023-01-10T14:04:27;24.17;;;4.60;;
50355;SDS011;36264;51.296;-0.602;2023-01-10T14:07:00;25.75;;;4.97;;
50355;SDS011;36264;51.296;-0.602;2023-01-10T14:09:32;20.92;;;4.78;;
50355;SDS011;36264;51.296;-0.602;2023-01-10T14:12:14;23.63;;;4.05;;
50355;SDS011;36264;51.296;-0.602;2023-01-10T14:14:41;21.08;;;4.05;;
50355;SDS011;36264;51.296;-0.602;2023-01-10T14:17:25;15.52;;;3.53;;
50355;SDS011;36264;51.296;-0.602;2023-01-10T14:20:00;14.63;;;3.45;;
50355;SDS011;36264;51.296;-0.602;2023-01-10T14:22:30;17.55;;;3.17;;
50355;SDS011;36264;51.296;-0.602;2023-01-10T14:24:59;13.38;;;2.83;;
50355;SDS011;36264;51.296;-0.602;2023-01-10T14:27:33;16.38;;;3.22;;
50355;SDS011;36264;51.296;-0.602;2023-01-10T14:30:06;19.38;;;3.50;;
50355;SDS011;36264;51.296;-0.602;2023-01-10T14:32:40;11.93;;;2.50;;
50355;SDS011;36264;51.296;-0.602;2023-01-10T14:35:08;11.98;;;2.75;;
50355;SDS011;36264;51.296;-0.602;2023-01-10T14:37:44;9.38;;;3.13;;
50355;SDS011;36264;51.296;-0.602;2023-01-10T14:40:36;11.15;;;2.83;;
50355;SDS011;36264;51.296;-0.602;2023-01-10T14:43:17;11.27;;;3.55;;
50355;SDS011;36264;51.296;-0.602;2023-01-10T14:45:47;11.90;;;2.78;;
50355;SDS011;36264;51.296;-0.602;2023-01-10T14:50:52;11.82;;;2.70;;
50355;SDS011;36264;51.296;-0.602;2023-01-10T14:53:36;12.82;;;3.50;;
50355;SDS011;36264;51.296;-0.602;2023-01-10T14:56:01;11.65;;;3.10;;
50355;SDS011;36264;51.296;-0.602;2023-01-10T14:58:27;7.32;;;2.30;;
50355;SDS011;36264;51.296;-0.602;2023-01-10T15:00:52;8.60;;;2.70;;
50355;SDS011;36264;51.296;-0.602;2023-01-10T15:03:21;10.30;;;2.53;;
50355;SDS011;36264;51.296;-0.602;2023-01-10T15:05:50;10.07;;;2.83;;
50355;SDS011;36264;51.296;-0.602;2023-01-10T15:08:29;11.82;;;2.72;;
50355;SDS011;36264;51.296;-0.602;2023-01-10T15:10:58;11.32;;;2.90;;
50355;SDS011;36264;51.296;-0.602;2023-01-10T15:13:28;8.07;;;2.20;;
50355;SDS011;36264;51.296;-0.602;2023-01-10T15:15:55;9.23;;;2.22;;
50355;SDS011;36264;51.296;-0.602;2023-01-10T15:21:02;12.82;;;2.53;;
50355;SDS011;36264;51.296;-0.602;2023-01-10T15:23:35;13.80;;;3.50;;
50355;SDS011;36264;51.296;-0.602;2023-01-10T15:26:09;17.98;;;3.28;;
50355;SDS011;36264;51.296;-0.602;2023-01-10T15:29:10;15.82;;;3.10;;
50355;SDS011;36264;51.296;-0.602;2023-01-10T15:31:36;19.25;;;3.95;;
50355;SDS011;36264;51.296;-0.602;2023-01-10T15:34:05;23.90;;;4.28;;
50355;SDS011;36264;51.296;-0.602;2023-01-10T15:36:47;19.93;;;3.93;;
50355;SDS011;36264;51.296;-0.602;2023-01-10T15:39:34;17.55;;;3.83;;
50355;SDS011;36264;51.296;-0.602;2023-01-10T15:42:05;21.38;;;4.22;;
50355;SDS011;36264;51.296;-0.602;2023-01-10T15:49:52;22.38;;;3.70;;
50355;SDS011;36264;51.296;-0.602;2023-01-10T15:52:20;17.58;;;3.67;;
50355;SDS011;36264;51.296;-0.602;2023-01-10T15:54:46;17.98;;;3.60;;
50355;SDS011;36264;51.296;-0.602;2023-01-10T15:57:23;21.42;;;4.25;;
50355;SDS011;36264;51.296;-0.602;2023-01-10T15:59:53;20.02;;;3.88;;
50355;SDS011;36264;51.296;-0.602;2023-01-10T16:04:53;24.63;;;4.35;;
50355;SDS011;36264;51.296;-0.602;2023-01-10T16:07:22;18.65;;;4.10;;
50355;SDS011;36264;51.296;-0.602;2023-01-10T16:12:25;25.08;;;4.13;;
50355;SDS011;36264;51.296;-0.602;2023-01-10T16:15:13;20.33;;;4.80;;
50355;SDS011;36264;51.296;-0.602;2023-01-10T16:17:41;15.30;;;3.88;;
50355;SDS011;36264;51.296;-0.602;2023-01-10T16:20:10;14.57;;;3.58;;
50355;SDS011;36264;51.296;-0.602;2023-01-10T16:22:37;18.55;;;4.43;;
50355;SDS011;36264;51.296;-0.602;2023-01-10T16:25:03;14.65;;;3.28;;
50355;SDS011;36264;51.296;-0.602;2023-01-10T16:27:29;22.50;;;3.90;;
50355;SDS011;36264;51.296;-0.602;2023-01-10T16:29:54;22.48;;;4.30;;
50355;SDS011;36264;51.296;-0.602;2023-01-10T16:32:20;13.13;;;3.08;;
50355;SDS011;36264;51.296;-0.602;2023-01-10T16:34:46;16.30;;;3.05;;